<?xml version="1.0" encoding="UTF-8" standalone="no" ?>
<gpx xmlns="http://www.topografix.com/GPX/1/1" xmlns:xsi="http://www.w3.org/2001/XMLSchema-instance" xsi:schemaLocation="http://www.topografix.com/GPX/1/1 http://www.topografix.com/GPX/1/1/gpx.xsd" version="1.1" creator="VisuGPX - https://www.visugpx.com">
  <metadata>
    <name>Singles à Soort et Seignosse - 15365 - UtagawaVTT.com</name>
  </metadata>
  <trk>
    <name><![CDATA[Singles à Soort et Seignosse - 15365 - UtagawaVTT.com]]></name>
    <trkseg>
      <trkpt lat="43.67966" lon="-1.38466">
        <ele>20.912064</ele>
        <time>2016-09-04T06:48:27Z</time>
      </trkpt>
      <trkpt lat="43.67977" lon="-1.38504">
        <ele>20.59281</ele>
        <time>2016-09-04T06:48:42Z</time>
      </trkpt>
      <trkpt lat="43.67982" lon="-1.38541">
        <ele>20.705421</ele>
        <time>2016-09-04T06:48:52Z</time>
      </trkpt>
      <trkpt lat="43.67982" lon="-1.38646">
        <ele>21.994375</ele>
        <time>2016-09-04T06:49:18Z</time>
      </trkpt>
      <trkpt lat="43.67974" lon="-1.38674">
        <ele>22.46125</ele>
        <time>2016-09-04T06:49:26Z</time>
      </trkpt>
      <trkpt lat="43.67973" lon="-1.3877">
        <ele>23.561188</ele>
        <time>2016-09-04T06:49:53Z</time>
      </trkpt>
      <trkpt lat="43.67957" lon="-1.38833">
        <ele>23.726707</ele>
        <time>2016-09-04T06:50:11Z</time>
      </trkpt>
      <trkpt lat="43.67952" lon="-1.38865">
        <ele>23.701437</ele>
        <time>2016-09-04T06:50:20Z</time>
      </trkpt>
      <trkpt lat="43.67957" lon="-1.38895">
        <ele>24.721485</ele>
        <time>2016-09-04T06:50:29Z</time>
      </trkpt>
      <trkpt lat="43.67958" lon="-1.38926">
        <ele>25.302219</ele>
        <time>2016-09-04T06:50:37Z</time>
      </trkpt>
      <trkpt lat="43.67936" lon="-1.39045">
        <ele>23.961</ele>
        <time>2016-09-04T06:51:07Z</time>
      </trkpt>
      <trkpt lat="43.67938" lon="-1.39074">
        <ele>24.021914</ele>
        <time>2016-09-04T06:51:14Z</time>
      </trkpt>
      <trkpt lat="43.67945" lon="-1.39134">
        <ele>27.419125</ele>
        <time>2016-09-04T06:51:31Z</time>
      </trkpt>
      <trkpt lat="43.67939" lon="-1.39196">
        <ele>28.58577</ele>
        <time>2016-09-04T06:51:47Z</time>
      </trkpt>
      <trkpt lat="43.67931" lon="-1.39346">
        <ele>31.317249</ele>
        <time>2016-09-04T06:52:25Z</time>
      </trkpt>
      <trkpt lat="43.67936" lon="-1.39374">
        <ele>32.188251</ele>
        <time>2016-09-04T06:52:33Z</time>
      </trkpt>
      <trkpt lat="43.67941" lon="-1.39457">
        <ele>31.367937</ele>
        <time>2016-09-04T06:52:56Z</time>
      </trkpt>
      <trkpt lat="43.67939" lon="-1.39483">
        <ele>30.581526</ele>
        <time>2016-09-04T06:53:03Z</time>
      </trkpt>
      <trkpt lat="43.6794" lon="-1.39535">
        <ele>29.947313</ele>
        <time>2016-09-04T06:53:20Z</time>
      </trkpt>
      <trkpt lat="43.67933" lon="-1.39557">
        <ele>29.75</ele>
        <time>2016-09-04T06:53:28Z</time>
      </trkpt>
      <trkpt lat="43.67922" lon="-1.3958">
        <ele>30.832813</ele>
        <time>2016-09-04T06:53:36Z</time>
      </trkpt>
      <trkpt lat="43.67917" lon="-1.39606">
        <ele>33.559624</ele>
        <time>2016-09-04T06:53:44Z</time>
      </trkpt>
      <trkpt lat="43.67896" lon="-1.39665">
        <ele>36.388672</ele>
        <time>2016-09-04T06:54:06Z</time>
      </trkpt>
      <trkpt lat="43.67901" lon="-1.39697">
        <ele>37.653248</ele>
        <time>2016-09-04T06:54:16Z</time>
      </trkpt>
      <trkpt lat="43.67902" lon="-1.39728">
        <ele>33.789631</ele>
        <time>2016-09-04T06:54:24Z</time>
      </trkpt>
      <trkpt lat="43.67899" lon="-1.39792">
        <ele>27.271393</ele>
        <time>2016-09-04T06:54:40Z</time>
      </trkpt>
      <trkpt lat="43.679" lon="-1.3982">
        <ele>25.06978</ele>
        <time>2016-09-04T06:54:47Z</time>
      </trkpt>
      <trkpt lat="43.67913" lon="-1.39843">
        <ele>26.550688</ele>
        <time>2016-09-04T06:54:57Z</time>
      </trkpt>
      <trkpt lat="43.67927" lon="-1.39863">
        <ele>27.614063</ele>
        <time>2016-09-04T06:55:06Z</time>
      </trkpt>
      <trkpt lat="43.67937" lon="-1.39889">
        <ele>28.627821</ele>
        <time>2016-09-04T06:55:15Z</time>
      </trkpt>
      <trkpt lat="43.67949" lon="-1.39959">
        <ele>30.984549</ele>
        <time>2016-09-04T06:55:37Z</time>
      </trkpt>
      <trkpt lat="43.6794" lon="-1.40037">
        <ele>30.405113</ele>
        <time>2016-09-04T06:55:59Z</time>
      </trkpt>
      <trkpt lat="43.67927" lon="-1.40103">
        <ele>29.05139</ele>
        <time>2016-09-04T06:56:15Z</time>
      </trkpt>
      <trkpt lat="43.67876" lon="-1.40248">
        <ele>24.548468</ele>
        <time>2016-09-04T06:56:59Z</time>
      </trkpt>
      <trkpt lat="43.67845" lon="-1.40296">
        <ele>21.181887</ele>
        <time>2016-09-04T06:57:15Z</time>
      </trkpt>
      <trkpt lat="43.67829" lon="-1.40317">
        <ele>20.836874</ele>
        <time>2016-09-04T06:57:24Z</time>
      </trkpt>
      <trkpt lat="43.67818" lon="-1.40343">
        <ele>20.856251</ele>
        <time>2016-09-04T06:57:33Z</time>
      </trkpt>
      <trkpt lat="43.67804" lon="-1.40367">
        <ele>21.039375</ele>
        <time>2016-09-04T06:57:42Z</time>
      </trkpt>
      <trkpt lat="43.67796" lon="-1.40394">
        <ele>22.141785</ele>
        <time>2016-09-04T06:57:51Z</time>
      </trkpt>
      <trkpt lat="43.67791" lon="-1.40421">
        <ele>23.381563</ele>
        <time>2016-09-04T06:57:59Z</time>
      </trkpt>
      <trkpt lat="43.6777" lon="-1.40471">
        <ele>26.121284</ele>
        <time>2016-09-04T06:58:16Z</time>
      </trkpt>
      <trkpt lat="43.67766" lon="-1.405">
        <ele>26.15975</ele>
        <time>2016-09-04T06:58:24Z</time>
      </trkpt>
      <trkpt lat="43.67767" lon="-1.40529">
        <ele>24.227148</ele>
        <time>2016-09-04T06:58:32Z</time>
      </trkpt>
      <trkpt lat="43.67777" lon="-1.40614">
        <ele>18.396875</ele>
        <time>2016-09-04T06:58:56Z</time>
      </trkpt>
      <trkpt lat="43.67819" lon="-1.40632">
        <ele>20.338949</ele>
        <time>2016-09-04T06:59:15Z</time>
      </trkpt>
      <trkpt lat="43.67834" lon="-1.40646">
        <ele>21.877943</ele>
        <time>2016-09-04T06:59:24Z</time>
      </trkpt>
      <trkpt lat="43.67849" lon="-1.40664">
        <ele>22.601875</ele>
        <time>2016-09-04T06:59:32Z</time>
      </trkpt>
      <trkpt lat="43.67851" lon="-1.4067">
        <ele>22.785</ele>
        <time>2016-09-04T06:59:34Z</time>
      </trkpt>
      <trkpt lat="43.67858" lon="-1.40677">
        <ele>22.80125</ele>
        <time>2016-09-04T06:59:38Z</time>
      </trkpt>
      <trkpt lat="43.67869" lon="-1.40681">
        <ele>22.441875</ele>
        <time>2016-09-04T06:59:43Z</time>
      </trkpt>
      <trkpt lat="43.67878" lon="-1.40691">
        <ele>22.407921</ele>
        <time>2016-09-04T06:59:47Z</time>
      </trkpt>
      <trkpt lat="43.67883" lon="-1.40713">
        <ele>23.306557</ele>
        <time>2016-09-04T06:59:54Z</time>
      </trkpt>
      <trkpt lat="43.67904" lon="-1.40746">
        <ele>24.293575</ele>
        <time>2016-09-04T07:00:06Z</time>
      </trkpt>
      <trkpt lat="43.67924" lon="-1.40763">
        <ele>22.995117</ele>
        <time>2016-09-04T07:00:16Z</time>
      </trkpt>
      <trkpt lat="43.67941" lon="-1.40767">
        <ele>22.098562</ele>
        <time>2016-09-04T07:00:24Z</time>
      </trkpt>
      <trkpt lat="43.67965" lon="-1.40767">
        <ele>21.197859</ele>
        <time>2016-09-04T07:00:34Z</time>
      </trkpt>
      <trkpt lat="43.68005" lon="-1.40783">
        <ele>19.342312</ele>
        <time>2016-09-04T07:00:53Z</time>
      </trkpt>
      <trkpt lat="43.68028" lon="-1.40808">
        <ele>19.236197</ele>
        <time>2016-09-04T07:01:03Z</time>
      </trkpt>
      <trkpt lat="43.68046" lon="-1.40833">
        <ele>19.145819</ele>
        <time>2016-09-04T07:01:12Z</time>
      </trkpt>
      <trkpt lat="43.68066" lon="-1.4085">
        <ele>18.309578</ele>
        <time>2016-09-04T07:01:21Z</time>
      </trkpt>
      <trkpt lat="43.68075" lon="-1.40863">
        <ele>17.597725</ele>
        <time>2016-09-04T07:01:27Z</time>
      </trkpt>
      <trkpt lat="43.68088" lon="-1.40895">
        <ele>17.558613</ele>
        <time>2016-09-04T07:01:39Z</time>
      </trkpt>
      <trkpt lat="43.68089" lon="-1.40927">
        <ele>19.846375</ele>
        <time>2016-09-04T07:01:49Z</time>
      </trkpt>
      <trkpt lat="43.68082" lon="-1.40991">
        <ele>23.859283</ele>
        <time>2016-09-04T07:02:05Z</time>
      </trkpt>
      <trkpt lat="43.68076" lon="-1.41017">
        <ele>24.058203</ele>
        <time>2016-09-04T07:02:13Z</time>
      </trkpt>
      <trkpt lat="43.68055" lon="-1.41067">
        <ele>22.103844</ele>
        <time>2016-09-04T07:02:30Z</time>
      </trkpt>
      <trkpt lat="43.68044" lon="-1.41175">
        <ele>17.652506</ele>
        <time>2016-09-04T07:03:01Z</time>
      </trkpt>
      <trkpt lat="43.68045" lon="-1.41204">
        <ele>16.407846</ele>
        <time>2016-09-04T07:03:09Z</time>
      </trkpt>
      <trkpt lat="43.68037" lon="-1.41269">
        <ele>13.49375</ele>
        <time>2016-09-04T07:03:25Z</time>
      </trkpt>
      <trkpt lat="43.68027" lon="-1.41324">
        <ele>12.309506</ele>
        <time>2016-09-04T07:03:41Z</time>
      </trkpt>
      <trkpt lat="43.68028" lon="-1.41336">
        <ele>12.206781</ele>
        <time>2016-09-04T07:03:44Z</time>
      </trkpt>
      <trkpt lat="43.68024" lon="-1.41347">
        <ele>11.97515</ele>
        <time>2016-09-04T07:03:47Z</time>
      </trkpt>
      <trkpt lat="43.68024" lon="-1.41359">
        <ele>11.860112</ele>
        <time>2016-09-04T07:03:50Z</time>
      </trkpt>
      <trkpt lat="43.68035" lon="-1.41411">
        <ele>11.91499</ele>
        <time>2016-09-04T07:04:06Z</time>
      </trkpt>
      <trkpt lat="43.68037" lon="-1.41469">
        <ele>11.444078</ele>
        <time>2016-09-04T07:04:21Z</time>
      </trkpt>
      <trkpt lat="43.68045" lon="-1.41503">
        <ele>10.483594</ele>
        <time>2016-09-04T07:04:32Z</time>
      </trkpt>
      <trkpt lat="43.68052" lon="-1.41566">
        <ele>9.541694</ele>
        <time>2016-09-04T07:04:49Z</time>
      </trkpt>
      <trkpt lat="43.68042" lon="-1.41658">
        <ele>8.2825</ele>
        <time>2016-09-04T07:05:12Z</time>
      </trkpt>
      <trkpt lat="43.68036" lon="-1.4168">
        <ele>8.175</ele>
        <time>2016-09-04T07:05:18Z</time>
      </trkpt>
      <trkpt lat="43.68047" lon="-1.41697">
        <ele>8.547734</ele>
        <time>2016-09-04T07:05:24Z</time>
      </trkpt>
      <trkpt lat="43.68059" lon="-1.41706">
        <ele>9.113612</ele>
        <time>2016-09-04T07:05:28Z</time>
      </trkpt>
      <trkpt lat="43.68071" lon="-1.41701">
        <ele>9.321125</ele>
        <time>2016-09-04T07:05:32Z</time>
      </trkpt>
      <trkpt lat="43.68078" lon="-1.41683">
        <ele>10.224247</ele>
        <time>2016-09-04T07:05:37Z</time>
      </trkpt>
      <trkpt lat="43.68093" lon="-1.41627">
        <ele>12.164657</ele>
        <time>2016-09-04T07:05:52Z</time>
      </trkpt>
      <trkpt lat="43.68115" lon="-1.41572">
        <ele>11.770266</ele>
        <time>2016-09-04T07:06:09Z</time>
      </trkpt>
      <trkpt lat="43.68148" lon="-1.41529">
        <ele>14.633706</ele>
        <time>2016-09-04T07:06:26Z</time>
      </trkpt>
      <trkpt lat="43.68176" lon="-1.41478">
        <ele>12.951519</ele>
        <time>2016-09-04T07:06:42Z</time>
      </trkpt>
      <trkpt lat="43.68195" lon="-1.41458">
        <ele>10.989238</ele>
        <time>2016-09-04T07:06:49Z</time>
      </trkpt>
      <trkpt lat="43.68233" lon="-1.4143">
        <ele>8.821578</ele>
        <time>2016-09-04T07:07:05Z</time>
      </trkpt>
      <trkpt lat="43.68254" lon="-1.41427">
        <ele>8.197532</ele>
        <time>2016-09-04T07:07:13Z</time>
      </trkpt>
      <trkpt lat="43.68312" lon="-1.41429">
        <ele>8</ele>
        <time>2016-09-04T07:07:36Z</time>
      </trkpt>
      <trkpt lat="43.68332" lon="-1.41428">
        <ele>8</ele>
        <time>2016-09-04T07:07:44Z</time>
      </trkpt>
      <trkpt lat="43.68376" lon="-1.41419">
        <ele>8.728609</ele>
        <time>2016-09-04T07:08:02Z</time>
      </trkpt>
      <trkpt lat="43.6842" lon="-1.41403">
        <ele>10.000025</ele>
        <time>2016-09-04T07:08:20Z</time>
      </trkpt>
      <trkpt lat="43.68442" lon="-1.41399">
        <ele>10.171281</ele>
        <time>2016-09-04T07:08:29Z</time>
      </trkpt>
      <trkpt lat="43.68453" lon="-1.41401">
        <ele>12.827875</ele>
        <time>2016-09-04T07:08:34Z</time>
      </trkpt>
      <trkpt lat="43.68454" lon="-1.41408">
        <ele>13.184969</ele>
        <time>2016-09-04T07:08:36Z</time>
      </trkpt>
      <trkpt lat="43.68446" lon="-1.41445">
        <ele>12.958406</ele>
        <time>2016-09-04T07:08:47Z</time>
      </trkpt>
      <trkpt lat="43.68413" lon="-1.41521">
        <ele>11.87265</ele>
        <time>2016-09-04T07:09:10Z</time>
      </trkpt>
      <trkpt lat="43.68404" lon="-1.41547">
        <ele>11.759012</ele>
        <time>2016-09-04T07:09:18Z</time>
      </trkpt>
      <trkpt lat="43.68405" lon="-1.41575">
        <ele>13.383819</ele>
        <time>2016-09-04T07:09:27Z</time>
      </trkpt>
      <trkpt lat="43.68414" lon="-1.41603">
        <ele>17.189032</ele>
        <time>2016-09-04T07:09:39Z</time>
      </trkpt>
      <trkpt lat="43.68423" lon="-1.41647">
        <ele>21.704935</ele>
        <time>2016-09-04T07:09:58Z</time>
      </trkpt>
      <trkpt lat="43.68449" lon="-1.41696">
        <ele>25.288359</ele>
        <time>2016-09-04T07:10:18Z</time>
      </trkpt>
      <trkpt lat="43.68466" lon="-1.41719">
        <ele>26.7614</ele>
        <time>2016-09-04T07:10:27Z</time>
      </trkpt>
      <trkpt lat="43.68474" lon="-1.41747">
        <ele>26.976601</ele>
        <time>2016-09-04T07:10:37Z</time>
      </trkpt>
      <trkpt lat="43.68489" lon="-1.4177">
        <ele>24.645912</ele>
        <time>2016-09-04T07:10:46Z</time>
      </trkpt>
      <trkpt lat="43.68504" lon="-1.41789">
        <ele>23.639746</ele>
        <time>2016-09-04T07:10:56Z</time>
      </trkpt>
      <trkpt lat="43.68515" lon="-1.41784">
        <ele>21.78141</ele>
        <time>2016-09-04T07:11:03Z</time>
      </trkpt>
      <trkpt lat="43.68518" lon="-1.41756">
        <ele>20.978359</ele>
        <time>2016-09-04T07:11:11Z</time>
      </trkpt>
      <trkpt lat="43.68515" lon="-1.41728">
        <ele>21.166275</ele>
        <time>2016-09-04T07:11:18Z</time>
      </trkpt>
      <trkpt lat="43.68517" lon="-1.417">
        <ele>21.233055</ele>
        <time>2016-09-04T07:11:26Z</time>
      </trkpt>
      <trkpt lat="43.68529" lon="-1.41672">
        <ele>20.677578</ele>
        <time>2016-09-04T07:11:34Z</time>
      </trkpt>
      <trkpt lat="43.68541" lon="-1.41649">
        <ele>20.56015</ele>
        <time>2016-09-04T07:11:41Z</time>
      </trkpt>
      <trkpt lat="43.68551" lon="-1.41637">
        <ele>20.202101</ele>
        <time>2016-09-04T07:11:46Z</time>
      </trkpt>
      <trkpt lat="43.6857" lon="-1.41622">
        <ele>19.381233</ele>
        <time>2016-09-04T07:11:54Z</time>
      </trkpt>
      <trkpt lat="43.68593" lon="-1.41613">
        <ele>19.61776</ele>
        <time>2016-09-04T07:12:02Z</time>
      </trkpt>
      <trkpt lat="43.6861" lon="-1.41601">
        <ele>19.878651</ele>
        <time>2016-09-04T07:12:12Z</time>
      </trkpt>
      <trkpt lat="43.68618" lon="-1.41543">
        <ele>19.992788</ele>
        <time>2016-09-04T07:12:28Z</time>
      </trkpt>
      <trkpt lat="43.68633" lon="-1.4153">
        <ele>20.089603</ele>
        <time>2016-09-04T07:12:36Z</time>
      </trkpt>
      <trkpt lat="43.68655" lon="-1.41525">
        <ele>20.698238</ele>
        <time>2016-09-04T07:12:46Z</time>
      </trkpt>
      <trkpt lat="43.6867" lon="-1.41528">
        <ele>20.8575</ele>
        <time>2016-09-04T07:12:52Z</time>
      </trkpt>
      <trkpt lat="43.68689" lon="-1.41505">
        <ele>20.450001</ele>
        <time>2016-09-04T07:13:02Z</time>
      </trkpt>
      <trkpt lat="43.68693" lon="-1.41494">
        <ele>20.372499</ele>
        <time>2016-09-04T07:13:06Z</time>
      </trkpt>
      <trkpt lat="43.68685" lon="-1.41455">
        <ele>20.577499</ele>
        <time>2016-09-04T07:13:17Z</time>
      </trkpt>
      <trkpt lat="43.68681" lon="-1.41391">
        <ele>20.620737</ele>
        <time>2016-09-04T07:13:34Z</time>
      </trkpt>
      <trkpt lat="43.68676" lon="-1.41359">
        <ele>21.237751</ele>
        <time>2016-09-04T07:13:43Z</time>
      </trkpt>
      <trkpt lat="43.68684" lon="-1.41326">
        <ele>19.314062</ele>
        <time>2016-09-04T07:13:52Z</time>
      </trkpt>
      <trkpt lat="43.68687" lon="-1.41296">
        <ele>17.89097</ele>
        <time>2016-09-04T07:14:01Z</time>
      </trkpt>
      <trkpt lat="43.68686" lon="-1.41268">
        <ele>16.814688</ele>
        <time>2016-09-04T07:14:11Z</time>
      </trkpt>
      <trkpt lat="43.68692" lon="-1.41237">
        <ele>14.853025</ele>
        <time>2016-09-04T07:14:22Z</time>
      </trkpt>
      <trkpt lat="43.68703" lon="-1.41207">
        <ele>14.054937</ele>
        <time>2016-09-04T07:14:32Z</time>
      </trkpt>
      <trkpt lat="43.6871" lon="-1.41177">
        <ele>12.878781</ele>
        <time>2016-09-04T07:14:41Z</time>
      </trkpt>
      <trkpt lat="43.68714" lon="-1.41143">
        <ele>12.8125</ele>
        <time>2016-09-04T07:14:50Z</time>
      </trkpt>
      <trkpt lat="43.68708" lon="-1.41093">
        <ele>15.067266</ele>
        <time>2016-09-04T07:15:06Z</time>
      </trkpt>
      <trkpt lat="43.68701" lon="-1.41062">
        <ele>17.185949</ele>
        <time>2016-09-04T07:15:16Z</time>
      </trkpt>
      <trkpt lat="43.68698" lon="-1.41003">
        <ele>21.0625</ele>
        <time>2016-09-04T07:15:36Z</time>
      </trkpt>
      <trkpt lat="43.6869" lon="-1.40979">
        <ele>24.228695</ele>
        <time>2016-09-04T07:15:46Z</time>
      </trkpt>
      <trkpt lat="43.6866" lon="-1.40953">
        <ele>30.547424</ele>
        <time>2016-09-04T07:16:08Z</time>
      </trkpt>
      <trkpt lat="43.68655" lon="-1.40915">
        <ele>34.193905</ele>
        <time>2016-09-04T07:16:21Z</time>
      </trkpt>
      <trkpt lat="43.68655" lon="-1.4086">
        <ele>35.576992</ele>
        <time>2016-09-04T07:16:40Z</time>
      </trkpt>
      <trkpt lat="43.68667" lon="-1.40793">
        <ele>34.472595</ele>
        <time>2016-09-04T07:17:02Z</time>
      </trkpt>
      <trkpt lat="43.68669" lon="-1.40762">
        <ele>31.232182</ele>
        <time>2016-09-04T07:17:11Z</time>
      </trkpt>
      <trkpt lat="43.68688" lon="-1.40737">
        <ele>30.579046</ele>
        <time>2016-09-04T07:17:19Z</time>
      </trkpt>
      <trkpt lat="43.68698" lon="-1.40715">
        <ele>28.415438</ele>
        <time>2016-09-04T07:17:27Z</time>
      </trkpt>
      <trkpt lat="43.68706" lon="-1.40686">
        <ele>24.507738</ele>
        <time>2016-09-04T07:17:36Z</time>
      </trkpt>
      <trkpt lat="43.68711" lon="-1.40653">
        <ele>21.1583</ele>
        <time>2016-09-04T07:17:46Z</time>
      </trkpt>
      <trkpt lat="43.68705" lon="-1.40621">
        <ele>19.274914</ele>
        <time>2016-09-04T07:17:56Z</time>
      </trkpt>
      <trkpt lat="43.6868" lon="-1.40566">
        <ele>19.726288</ele>
        <time>2016-09-04T07:18:14Z</time>
      </trkpt>
      <trkpt lat="43.68666" lon="-1.40541">
        <ele>20.67729</ele>
        <time>2016-09-04T07:18:22Z</time>
      </trkpt>
      <trkpt lat="43.68616" lon="-1.4048">
        <ele>22.102589</ele>
        <time>2016-09-04T07:18:47Z</time>
      </trkpt>
      <trkpt lat="43.6858" lon="-1.40448">
        <ele>21.11059</ele>
        <time>2016-09-04T07:19:03Z</time>
      </trkpt>
      <trkpt lat="43.68567" lon="-1.40425">
        <ele>20.210985</ele>
        <time>2016-09-04T07:19:11Z</time>
      </trkpt>
      <trkpt lat="43.68562" lon="-1.40398">
        <ele>18.380175</ele>
        <time>2016-09-04T07:19:19Z</time>
      </trkpt>
      <trkpt lat="43.68562" lon="-1.40372">
        <ele>16.708561</ele>
        <time>2016-09-04T07:19:27Z</time>
      </trkpt>
      <trkpt lat="43.68573" lon="-1.40342">
        <ele>15.0732</ele>
        <time>2016-09-04T07:19:36Z</time>
      </trkpt>
      <trkpt lat="43.68609" lon="-1.40289">
        <ele>13</ele>
        <time>2016-09-04T07:19:52Z</time>
      </trkpt>
      <trkpt lat="43.68657" lon="-1.40227">
        <ele>13.21875</ele>
        <time>2016-09-04T07:20:16Z</time>
      </trkpt>
      <trkpt lat="43.68668" lon="-1.40204">
        <ele>13.589375</ele>
        <time>2016-09-04T07:20:25Z</time>
      </trkpt>
      <trkpt lat="43.68706" lon="-1.40179">
        <ele>14.0875</ele>
        <time>2016-09-04T07:20:41Z</time>
      </trkpt>
      <trkpt lat="43.68723" lon="-1.40163">
        <ele>14.746172</ele>
        <time>2016-09-04T07:20:48Z</time>
      </trkpt>
      <trkpt lat="43.68738" lon="-1.4014">
        <ele>15.159388</ele>
        <time>2016-09-04T07:20:56Z</time>
      </trkpt>
      <trkpt lat="43.68747" lon="-1.40117">
        <ele>15.2275</ele>
        <time>2016-09-04T07:21:05Z</time>
      </trkpt>
      <trkpt lat="43.68761" lon="-1.40095">
        <ele>15</ele>
        <time>2016-09-04T07:21:14Z</time>
      </trkpt>
      <trkpt lat="43.6878" lon="-1.40083">
        <ele>15</ele>
        <time>2016-09-04T07:21:22Z</time>
      </trkpt>
      <trkpt lat="43.68803" lon="-1.40081">
        <ele>15</ele>
        <time>2016-09-04T07:21:32Z</time>
      </trkpt>
      <trkpt lat="43.6884" lon="-1.40102">
        <ele>15.8375</ele>
        <time>2016-09-04T07:21:51Z</time>
      </trkpt>
      <trkpt lat="43.68922" lon="-1.40125">
        <ele>14.06395</ele>
        <time>2016-09-04T07:22:23Z</time>
      </trkpt>
      <trkpt lat="43.68956" lon="-1.40148">
        <ele>13.22379</ele>
        <time>2016-09-04T07:22:39Z</time>
      </trkpt>
      <trkpt lat="43.68986" lon="-1.40182">
        <ele>12.897412</ele>
        <time>2016-09-04T07:22:55Z</time>
      </trkpt>
      <trkpt lat="43.69007" lon="-1.40174">
        <ele>12.65942</ele>
        <time>2016-09-04T07:23:03Z</time>
      </trkpt>
      <trkpt lat="43.69029" lon="-1.40176">
        <ele>12.461416</ele>
        <time>2016-09-04T07:23:13Z</time>
      </trkpt>
      <trkpt lat="43.69044" lon="-1.40191">
        <ele>12.2862</ele>
        <time>2016-09-04T07:23:23Z</time>
      </trkpt>
      <trkpt lat="43.69062" lon="-1.40215">
        <ele>11.855185</ele>
        <time>2016-09-04T07:23:35Z</time>
      </trkpt>
      <trkpt lat="43.69082" lon="-1.40235">
        <ele>11.8525</ele>
        <time>2016-09-04T07:23:45Z</time>
      </trkpt>
      <trkpt lat="43.69105" lon="-1.40252">
        <ele>12.133125</ele>
        <time>2016-09-04T07:23:54Z</time>
      </trkpt>
      <trkpt lat="43.69135" lon="-1.403">
        <ele>12.645</ele>
        <time>2016-09-04T07:24:15Z</time>
      </trkpt>
      <trkpt lat="43.69154" lon="-1.40319">
        <ele>13.22375</ele>
        <time>2016-09-04T07:24:25Z</time>
      </trkpt>
      <trkpt lat="43.69188" lon="-1.40374">
        <ele>13.7825</ele>
        <time>2016-09-04T07:24:45Z</time>
      </trkpt>
      <trkpt lat="43.69209" lon="-1.40343">
        <ele>14.948005</ele>
        <time>2016-09-04T07:24:59Z</time>
      </trkpt>
      <trkpt lat="43.69209" lon="-1.40328">
        <ele>15</ele>
        <time>2016-09-04T07:25:04Z</time>
      </trkpt>
      <trkpt lat="43.69202" lon="-1.40295">
        <ele>15</ele>
        <time>2016-09-04T07:25:13Z</time>
      </trkpt>
      <trkpt lat="43.69213" lon="-1.40235">
        <ele>15</ele>
        <time>2016-09-04T07:25:29Z</time>
      </trkpt>
      <trkpt lat="43.69216" lon="-1.40207">
        <ele>15</ele>
        <time>2016-09-04T07:25:37Z</time>
      </trkpt>
      <trkpt lat="43.69214" lon="-1.40147">
        <ele>15.014447</ele>
        <time>2016-09-04T07:25:53Z</time>
      </trkpt>
      <trkpt lat="43.69195" lon="-1.40064">
        <ele>15.289119</ele>
        <time>2016-09-04T07:26:20Z</time>
      </trkpt>
      <trkpt lat="43.69201" lon="-1.40038">
        <ele>15.680469</ele>
        <time>2016-09-04T07:26:28Z</time>
      </trkpt>
      <trkpt lat="43.69227" lon="-1.40018">
        <ele>16.904375</ele>
        <time>2016-09-04T07:26:37Z</time>
      </trkpt>
      <trkpt lat="43.69245" lon="-1.40018">
        <ele>17.380625</ele>
        <time>2016-09-04T07:26:47Z</time>
      </trkpt>
      <trkpt lat="43.69242" lon="-1.40005">
        <ele>17.941875</ele>
        <time>2016-09-04T07:26:51Z</time>
      </trkpt>
      <trkpt lat="43.69242" lon="-1.39978">
        <ele>19.233126</ele>
        <time>2016-09-04T07:27:00Z</time>
      </trkpt>
      <trkpt lat="43.69248" lon="-1.39921">
        <ele>19.94453</ele>
        <time>2016-09-04T07:27:17Z</time>
      </trkpt>
      <trkpt lat="43.69245" lon="-1.3989">
        <ele>19.557594</ele>
        <time>2016-09-04T07:27:25Z</time>
      </trkpt>
      <trkpt lat="43.69237" lon="-1.39862">
        <ele>18.545782</ele>
        <time>2016-09-04T07:27:33Z</time>
      </trkpt>
      <trkpt lat="43.69216" lon="-1.39814">
        <ele>17.697214</ele>
        <time>2016-09-04T07:27:51Z</time>
      </trkpt>
      <trkpt lat="43.69209" lon="-1.39789">
        <ele>18.834101</ele>
        <time>2016-09-04T07:28:01Z</time>
      </trkpt>
      <trkpt lat="43.69204" lon="-1.39758">
        <ele>20.575737</ele>
        <time>2016-09-04T07:28:11Z</time>
      </trkpt>
      <trkpt lat="43.69203" lon="-1.39729">
        <ele>22.20429</ele>
        <time>2016-09-04T07:28:20Z</time>
      </trkpt>
      <trkpt lat="43.69204" lon="-1.39701">
        <ele>23.801641</ele>
        <time>2016-09-04T07:28:29Z</time>
      </trkpt>
      <trkpt lat="43.69199" lon="-1.39647">
        <ele>27.067898</ele>
        <time>2016-09-04T07:28:47Z</time>
      </trkpt>
      <trkpt lat="43.69202" lon="-1.39593">
        <ele>31.006859</ele>
        <time>2016-09-04T07:29:05Z</time>
      </trkpt>
      <trkpt lat="43.6921" lon="-1.39565">
        <ele>31.041124</ele>
        <time>2016-09-04T07:29:15Z</time>
      </trkpt>
      <trkpt lat="43.69207" lon="-1.39509">
        <ele>30.460218</ele>
        <time>2016-09-04T07:29:34Z</time>
      </trkpt>
      <trkpt lat="43.69212" lon="-1.39476">
        <ele>28.73461</ele>
        <time>2016-09-04T07:29:43Z</time>
      </trkpt>
      <trkpt lat="43.6921" lon="-1.39447">
        <ele>28.591974</ele>
        <time>2016-09-04T07:29:51Z</time>
      </trkpt>
      <trkpt lat="43.69205" lon="-1.3942">
        <ele>28.825916</ele>
        <time>2016-09-04T07:29:59Z</time>
      </trkpt>
      <trkpt lat="43.69176" lon="-1.39346">
        <ele>27.305428</ele>
        <time>2016-09-04T07:30:24Z</time>
      </trkpt>
      <trkpt lat="43.69167" lon="-1.39259">
        <ele>27.445618</ele>
        <time>2016-09-04T07:30:51Z</time>
      </trkpt>
      <trkpt lat="43.69163" lon="-1.3923">
        <ele>27.998669</ele>
        <time>2016-09-04T07:31:00Z</time>
      </trkpt>
      <trkpt lat="43.6916" lon="-1.39167">
        <ele>31.001375</ele>
        <time>2016-09-04T07:31:18Z</time>
      </trkpt>
      <trkpt lat="43.69147" lon="-1.39082">
        <ele>31.066818</ele>
        <time>2016-09-04T07:31:43Z</time>
      </trkpt>
      <trkpt lat="43.69145" lon="-1.39053">
        <ele>27.996063</ele>
        <time>2016-09-04T07:31:52Z</time>
      </trkpt>
      <trkpt lat="43.69148" lon="-1.38987">
        <ele>26.607204</ele>
        <time>2016-09-04T07:32:10Z</time>
      </trkpt>
      <trkpt lat="43.69148" lon="-1.38956">
        <ele>26.985476</ele>
        <time>2016-09-04T07:32:20Z</time>
      </trkpt>
      <trkpt lat="43.6915" lon="-1.38931">
        <ele>27.267582</ele>
        <time>2016-09-04T07:32:28Z</time>
      </trkpt>
      <trkpt lat="43.69145" lon="-1.38889">
        <ele>27.85375</ele>
        <time>2016-09-04T07:32:41Z</time>
      </trkpt>
      <trkpt lat="43.69137" lon="-1.38859">
        <ele>29.576363</ele>
        <time>2016-09-04T07:32:50Z</time>
      </trkpt>
      <trkpt lat="43.69133" lon="-1.38788">
        <ele>29.751766</ele>
        <time>2016-09-04T07:33:10Z</time>
      </trkpt>
      <trkpt lat="43.69118" lon="-1.38726">
        <ele>30.379341</ele>
        <time>2016-09-04T07:33:27Z</time>
      </trkpt>
      <trkpt lat="43.6911" lon="-1.38698">
        <ele>30.969999</ele>
        <time>2016-09-04T07:33:37Z</time>
      </trkpt>
      <trkpt lat="43.69088" lon="-1.38643">
        <ele>32.979343</ele>
        <time>2016-09-04T07:33:56Z</time>
      </trkpt>
      <trkpt lat="43.6908" lon="-1.38585">
        <ele>33.116249</ele>
        <time>2016-09-04T07:34:14Z</time>
      </trkpt>
      <trkpt lat="43.69066" lon="-1.38532">
        <ele>36.036045</ele>
        <time>2016-09-04T07:34:31Z</time>
      </trkpt>
      <trkpt lat="43.69057" lon="-1.38506">
        <ele>38.443188</ele>
        <time>2016-09-04T07:34:40Z</time>
      </trkpt>
      <trkpt lat="43.69041" lon="-1.3845">
        <ele>39.593651</ele>
        <time>2016-09-04T07:34:58Z</time>
      </trkpt>
      <trkpt lat="43.69022" lon="-1.38392">
        <ele>38.200657</ele>
        <time>2016-09-04T07:35:16Z</time>
      </trkpt>
      <trkpt lat="43.6899" lon="-1.3828">
        <ele>38.169064</ele>
        <time>2016-09-04T07:35:51Z</time>
      </trkpt>
      <trkpt lat="43.68969" lon="-1.3823">
        <ele>39.94125</ele>
        <time>2016-09-04T07:36:09Z</time>
      </trkpt>
      <trkpt lat="43.68966" lon="-1.38228">
        <ele>40.64201</ele>
        <time>2016-09-04T07:36:11Z</time>
      </trkpt>
      <trkpt lat="43.6895" lon="-1.38234">
        <ele>42.668697</ele>
        <time>2016-09-04T07:36:17Z</time>
      </trkpt>
      <trkpt lat="43.68927" lon="-1.38251">
        <ele>41.025436</ele>
        <time>2016-09-04T07:36:26Z</time>
      </trkpt>
      <trkpt lat="43.68909" lon="-1.38256">
        <ele>38.804451</ele>
        <time>2016-09-04T07:36:31Z</time>
      </trkpt>
      <trkpt lat="43.68891" lon="-1.3827">
        <ele>35.406033</ele>
        <time>2016-09-04T07:36:39Z</time>
      </trkpt>
      <trkpt lat="43.68889" lon="-1.38298">
        <ele>33.698788</ele>
        <time>2016-09-04T07:36:48Z</time>
      </trkpt>
      <trkpt lat="43.68892" lon="-1.38327">
        <ele>32.528019</ele>
        <time>2016-09-04T07:36:57Z</time>
      </trkpt>
      <trkpt lat="43.689" lon="-1.38362">
        <ele>31.525793</ele>
        <time>2016-09-04T07:37:06Z</time>
      </trkpt>
      <trkpt lat="43.68907" lon="-1.38425">
        <ele>27.974951</ele>
        <time>2016-09-04T07:37:22Z</time>
      </trkpt>
      <trkpt lat="43.68905" lon="-1.38448">
        <ele>25.832863</ele>
        <time>2016-09-04T07:37:30Z</time>
      </trkpt>
      <trkpt lat="43.68854" lon="-1.38453">
        <ele>25.051113</ele>
        <time>2016-09-04T07:37:55Z</time>
      </trkpt>
      <trkpt lat="43.68834" lon="-1.38447">
        <ele>25.097219</ele>
        <time>2016-09-04T07:38:05Z</time>
      </trkpt>
      <trkpt lat="43.6882" lon="-1.3842">
        <ele>25.093187</ele>
        <time>2016-09-04T07:38:14Z</time>
      </trkpt>
      <trkpt lat="43.68813" lon="-1.38392">
        <ele>24.931532</ele>
        <time>2016-09-04T07:38:23Z</time>
      </trkpt>
      <trkpt lat="43.6881" lon="-1.38386">
        <ele>24.9245</ele>
        <time>2016-09-04T07:38:25Z</time>
      </trkpt>
      <trkpt lat="43.68803" lon="-1.38383">
        <ele>24.75564</ele>
        <time>2016-09-04T07:38:29Z</time>
      </trkpt>
      <trkpt lat="43.68786" lon="-1.38404">
        <ele>24.507679</ele>
        <time>2016-09-04T07:38:40Z</time>
      </trkpt>
      <trkpt lat="43.68775" lon="-1.38429">
        <ele>24.698513</ele>
        <time>2016-09-04T07:38:51Z</time>
      </trkpt>
      <trkpt lat="43.68746" lon="-1.38482">
        <ele>25.270876</ele>
        <time>2016-09-04T07:39:15Z</time>
      </trkpt>
      <trkpt lat="43.68737" lon="-1.38516">
        <ele>25.396999</ele>
        <time>2016-09-04T07:39:26Z</time>
      </trkpt>
      <trkpt lat="43.68725" lon="-1.38546">
        <ele>25.633059</ele>
        <time>2016-09-04T07:39:37Z</time>
      </trkpt>
      <trkpt lat="43.68709" lon="-1.38606">
        <ele>26.507673</ele>
        <time>2016-09-04T07:40:00Z</time>
      </trkpt>
      <trkpt lat="43.68703" lon="-1.38672">
        <ele>27</ele>
        <time>2016-09-04T07:40:21Z</time>
      </trkpt>
      <trkpt lat="43.68697" lon="-1.38702">
        <ele>26.829624</ele>
        <time>2016-09-04T07:40:31Z</time>
      </trkpt>
      <trkpt lat="43.68683" lon="-1.3873">
        <ele>26.651232</ele>
        <time>2016-09-04T07:40:40Z</time>
      </trkpt>
      <trkpt lat="43.68666" lon="-1.38786">
        <ele>27.40387</ele>
        <time>2016-09-04T07:40:58Z</time>
      </trkpt>
      <trkpt lat="43.68661" lon="-1.38849">
        <ele>28.2313</ele>
        <time>2016-09-04T07:41:16Z</time>
      </trkpt>
      <trkpt lat="43.68633" lon="-1.38904">
        <ele>34.94746</ele>
        <time>2016-09-04T07:41:36Z</time>
      </trkpt>
      <trkpt lat="43.68582" lon="-1.38979">
        <ele>29.450224</ele>
        <time>2016-09-04T07:42:06Z</time>
      </trkpt>
      <trkpt lat="43.68534" lon="-1.39088">
        <ele>23.935856</ele>
        <time>2016-09-04T07:42:43Z</time>
      </trkpt>
      <trkpt lat="43.68528" lon="-1.39118">
        <ele>23.63933</ele>
        <time>2016-09-04T07:42:53Z</time>
      </trkpt>
      <trkpt lat="43.68518" lon="-1.3915">
        <ele>25.479851</ele>
        <time>2016-09-04T07:43:04Z</time>
      </trkpt>
      <trkpt lat="43.68503" lon="-1.39177">
        <ele>27.893681</ele>
        <time>2016-09-04T07:43:13Z</time>
      </trkpt>
      <trkpt lat="43.68499" lon="-1.39209">
        <ele>29.225843</ele>
        <time>2016-09-04T07:43:25Z</time>
      </trkpt>
      <trkpt lat="43.68483" lon="-1.39273">
        <ele>29.063087</ele>
        <time>2016-09-04T07:43:43Z</time>
      </trkpt>
      <trkpt lat="43.68473" lon="-1.39302">
        <ele>29.011385</ele>
        <time>2016-09-04T07:43:53Z</time>
      </trkpt>
      <trkpt lat="43.68455" lon="-1.3932">
        <ele>30.04689</ele>
        <time>2016-09-04T07:44:03Z</time>
      </trkpt>
      <trkpt lat="43.6843" lon="-1.39325">
        <ele>30.892469</ele>
        <time>2016-09-04T07:44:14Z</time>
      </trkpt>
      <trkpt lat="43.68387" lon="-1.39326">
        <ele>30.343651</ele>
        <time>2016-09-04T07:44:33Z</time>
      </trkpt>
      <trkpt lat="43.68364" lon="-1.39321">
        <ele>29.861269</ele>
        <time>2016-09-04T07:44:43Z</time>
      </trkpt>
      <trkpt lat="43.68346" lon="-1.39315">
        <ele>29.5445</ele>
        <time>2016-09-04T07:44:53Z</time>
      </trkpt>
      <trkpt lat="43.68338" lon="-1.39302">
        <ele>30.162725</ele>
        <time>2016-09-04T07:44:58Z</time>
      </trkpt>
      <trkpt lat="43.68321" lon="-1.39228">
        <ele>40.868179</ele>
        <time>2016-09-04T07:45:21Z</time>
      </trkpt>
      <trkpt lat="43.68314" lon="-1.39171">
        <ele>45.709</ele>
        <time>2016-09-04T07:45:43Z</time>
      </trkpt>
      <trkpt lat="43.68308" lon="-1.39148">
        <ele>46.764946</ele>
        <time>2016-09-04T07:45:53Z</time>
      </trkpt>
      <trkpt lat="43.68294" lon="-1.39116">
        <ele>48.91</ele>
        <time>2016-09-04T07:46:04Z</time>
      </trkpt>
      <trkpt lat="43.68292" lon="-1.39086">
        <ele>49.279503</ele>
        <time>2016-09-04T07:46:14Z</time>
      </trkpt>
      <trkpt lat="43.68286" lon="-1.39085">
        <ele>49.223717</ele>
        <time>2016-09-04T07:46:17Z</time>
      </trkpt>
      <trkpt lat="43.68227" lon="-1.39125">
        <ele>46.564999</ele>
        <time>2016-09-04T07:46:47Z</time>
      </trkpt>
      <trkpt lat="43.68209" lon="-1.39142">
        <ele>45.047501</ele>
        <time>2016-09-04T07:46:56Z</time>
      </trkpt>
      <trkpt lat="43.68164" lon="-1.39161">
        <ele>42.311089</ele>
        <time>2016-09-04T07:47:12Z</time>
      </trkpt>
      <trkpt lat="43.68143" lon="-1.39176">
        <ele>40.414207</ele>
        <time>2016-09-04T07:47:22Z</time>
      </trkpt>
      <trkpt lat="43.68121" lon="-1.39178">
        <ele>40.218548</ele>
        <time>2016-09-04T07:47:32Z</time>
      </trkpt>
      <trkpt lat="43.68104" lon="-1.39175">
        <ele>40.199451</ele>
        <time>2016-09-04T07:47:39Z</time>
      </trkpt>
      <trkpt lat="43.68102" lon="-1.3918">
        <ele>39.890945</ele>
        <time>2016-09-04T07:47:41Z</time>
      </trkpt>
      <trkpt lat="43.68115" lon="-1.3921">
        <ele>38.097717</ele>
        <time>2016-09-04T07:47:53Z</time>
      </trkpt>
      <trkpt lat="43.68115" lon="-1.39238">
        <ele>37.845039</ele>
        <time>2016-09-04T07:48:02Z</time>
      </trkpt>
      <trkpt lat="43.68121" lon="-1.39261">
        <ele>37.274811</ele>
        <time>2016-09-04T07:48:11Z</time>
      </trkpt>
      <trkpt lat="43.68143" lon="-1.39319">
        <ele>35.060001</ele>
        <time>2016-09-04T07:48:33Z</time>
      </trkpt>
      <trkpt lat="43.68151" lon="-1.39381">
        <ele>34.707546</ele>
        <time>2016-09-04T07:48:54Z</time>
      </trkpt>
      <trkpt lat="43.68161" lon="-1.39417">
        <ele>32.514618</ele>
        <time>2016-09-04T07:49:05Z</time>
      </trkpt>
      <trkpt lat="43.68186" lon="-1.39478">
        <ele>31.478813</ele>
        <time>2016-09-04T07:49:25Z</time>
      </trkpt>
      <trkpt lat="43.68196" lon="-1.39506">
        <ele>33.31361</ele>
        <time>2016-09-04T07:49:34Z</time>
      </trkpt>
      <trkpt lat="43.6819" lon="-1.3952">
        <ele>34.241749</ele>
        <time>2016-09-04T07:49:38Z</time>
      </trkpt>
      <trkpt lat="43.68167" lon="-1.39545">
        <ele>32.914589</ele>
        <time>2016-09-04T07:49:49Z</time>
      </trkpt>
      <trkpt lat="43.68125" lon="-1.39565">
        <ele>33.437851</ele>
        <time>2016-09-04T07:50:06Z</time>
      </trkpt>
      <trkpt lat="43.68023" lon="-1.3963">
        <ele>37.283588</ele>
        <time>2016-09-04T07:50:55Z</time>
      </trkpt>
      <trkpt lat="43.67932" lon="-1.39656">
        <ele>37.063812</ele>
        <time>2016-09-04T07:51:34Z</time>
      </trkpt>
      <trkpt lat="43.6791" lon="-1.39656">
        <ele>36.797516</ele>
        <time>2016-09-04T07:51:43Z</time>
      </trkpt>
      <trkpt lat="43.67888" lon="-1.39649">
        <ele>34.790749</ele>
        <time>2016-09-04T07:51:52Z</time>
      </trkpt>
      <trkpt lat="43.67825" lon="-1.39645">
        <ele>33.114799</ele>
        <time>2016-09-04T07:52:18Z</time>
      </trkpt>
      <trkpt lat="43.6777" lon="-1.39645">
        <ele>35.54385</ele>
        <time>2016-09-04T07:52:43Z</time>
      </trkpt>
      <trkpt lat="43.67749" lon="-1.39641">
        <ele>36.178688</ele>
        <time>2016-09-04T07:52:52Z</time>
      </trkpt>
      <trkpt lat="43.67686" lon="-1.39649">
        <ele>36.256748</ele>
        <time>2016-09-04T07:53:18Z</time>
      </trkpt>
      <trkpt lat="43.67668" lon="-1.39644">
        <ele>34.231365</ele>
        <time>2016-09-04T07:53:25Z</time>
      </trkpt>
      <trkpt lat="43.67658" lon="-1.39627">
        <ele>31.887695</ele>
        <time>2016-09-04T07:53:32Z</time>
      </trkpt>
      <trkpt lat="43.67635" lon="-1.39613">
        <ele>29.580078</ele>
        <time>2016-09-04T07:53:43Z</time>
      </trkpt>
      <trkpt lat="43.67598" lon="-1.39512">
        <ele>29.66188</ele>
        <time>2016-09-04T07:54:20Z</time>
      </trkpt>
      <trkpt lat="43.67589" lon="-1.39497">
        <ele>31.197124</ele>
        <time>2016-09-04T07:54:26Z</time>
      </trkpt>
      <trkpt lat="43.67586" lon="-1.39487">
        <ele>31.964531</ele>
        <time>2016-09-04T07:54:29Z</time>
      </trkpt>
      <trkpt lat="43.67574" lon="-1.39466">
        <ele>32.464699</ele>
        <time>2016-09-04T07:54:37Z</time>
      </trkpt>
      <trkpt lat="43.67555" lon="-1.3946">
        <ele>36.037811</ele>
        <time>2016-09-04T07:54:50Z</time>
      </trkpt>
      <trkpt lat="43.67548" lon="-1.3946">
        <ele>37.819088</ele>
        <time>2016-09-04T07:54:57Z</time>
      </trkpt>
      <trkpt lat="43.67542" lon="-1.39454">
        <ele>38.624577</ele>
        <time>2016-09-04T07:55:01Z</time>
      </trkpt>
      <trkpt lat="43.67502" lon="-1.39449">
        <ele>42.671535</ele>
        <time>2016-09-04T07:55:19Z</time>
      </trkpt>
      <trkpt lat="43.67485" lon="-1.39441">
        <ele>41.090763</ele>
        <time>2016-09-04T07:55:25Z</time>
      </trkpt>
      <trkpt lat="43.67482" lon="-1.39434">
        <ele>40.440258</ele>
        <time>2016-09-04T07:55:28Z</time>
      </trkpt>
      <trkpt lat="43.6749" lon="-1.39421">
        <ele>40.318855</ele>
        <time>2016-09-04T07:55:34Z</time>
      </trkpt>
      <trkpt lat="43.67491" lon="-1.3941">
        <ele>39.141735</ele>
        <time>2016-09-04T07:55:37Z</time>
      </trkpt>
      <trkpt lat="43.67486" lon="-1.39381">
        <ele>35.248829</ele>
        <time>2016-09-04T07:55:45Z</time>
      </trkpt>
      <trkpt lat="43.67478" lon="-1.39355">
        <ele>32.002892</ele>
        <time>2016-09-04T07:55:52Z</time>
      </trkpt>
      <trkpt lat="43.6746" lon="-1.39271">
        <ele>28.732195</ele>
        <time>2016-09-04T07:56:15Z</time>
      </trkpt>
      <trkpt lat="43.67453" lon="-1.39217">
        <ele>25.941917</ele>
        <time>2016-09-04T07:56:29Z</time>
      </trkpt>
      <trkpt lat="43.67446" lon="-1.39193">
        <ele>25.022058</ele>
        <time>2016-09-04T07:56:36Z</time>
      </trkpt>
      <trkpt lat="43.67432" lon="-1.39173">
        <ele>24.700851</ele>
        <time>2016-09-04T07:56:43Z</time>
      </trkpt>
      <trkpt lat="43.6742" lon="-1.39152">
        <ele>25.276211</ele>
        <time>2016-09-04T07:56:51Z</time>
      </trkpt>
      <trkpt lat="43.67416" lon="-1.3915">
        <ele>25.50798</ele>
        <time>2016-09-04T07:56:53Z</time>
      </trkpt>
      <trkpt lat="43.67388" lon="-1.39161">
        <ele>26.966225</ele>
        <time>2016-09-04T07:57:04Z</time>
      </trkpt>
      <trkpt lat="43.67373" lon="-1.39148">
        <ele>27.138975</ele>
        <time>2016-09-04T07:57:12Z</time>
      </trkpt>
      <trkpt lat="43.67371" lon="-1.39121">
        <ele>27.48209</ele>
        <time>2016-09-04T07:57:20Z</time>
      </trkpt>
      <trkpt lat="43.67373" lon="-1.39095">
        <ele>27.610701</ele>
        <time>2016-09-04T07:57:29Z</time>
      </trkpt>
      <trkpt lat="43.67385" lon="-1.39066">
        <ele>27.123129</ele>
        <time>2016-09-04T07:57:40Z</time>
      </trkpt>
      <trkpt lat="43.67401" lon="-1.3904">
        <ele>27.0177</ele>
        <time>2016-09-04T07:57:48Z</time>
      </trkpt>
      <trkpt lat="43.67417" lon="-1.39034">
        <ele>26.515537</ele>
        <time>2016-09-04T07:57:56Z</time>
      </trkpt>
      <trkpt lat="43.67429" lon="-1.39041">
        <ele>25.267584</ele>
        <time>2016-09-04T07:58:03Z</time>
      </trkpt>
      <trkpt lat="43.67446" lon="-1.39042">
        <ele>24.574274</ele>
        <time>2016-09-04T07:58:10Z</time>
      </trkpt>
      <trkpt lat="43.67447" lon="-1.3904">
        <ele>24.950808</ele>
        <time>2016-09-04T07:58:11Z</time>
      </trkpt>
      <trkpt lat="43.67442" lon="-1.38998">
        <ele>28.60187</ele>
        <time>2016-09-04T07:58:26Z</time>
      </trkpt>
      <trkpt lat="43.67454" lon="-1.38981">
        <ele>30.989765</ele>
        <time>2016-09-04T07:58:37Z</time>
      </trkpt>
      <trkpt lat="43.67469" lon="-1.38981">
        <ele>32.771439</ele>
        <time>2016-09-04T07:58:45Z</time>
      </trkpt>
      <trkpt lat="43.67489" lon="-1.38947">
        <ele>31.050468</ele>
        <time>2016-09-04T07:59:02Z</time>
      </trkpt>
      <trkpt lat="43.67481" lon="-1.38936">
        <ele>30.19775</ele>
        <time>2016-09-04T07:59:08Z</time>
      </trkpt>
      <trkpt lat="43.67458" lon="-1.38925">
        <ele>31.131876</ele>
        <time>2016-09-04T07:59:18Z</time>
      </trkpt>
      <trkpt lat="43.67451" lon="-1.38909">
        <ele>28.986137</ele>
        <time>2016-09-04T07:59:24Z</time>
      </trkpt>
      <trkpt lat="43.67445" lon="-1.38906">
        <ele>28.300938</ele>
        <time>2016-09-04T07:59:27Z</time>
      </trkpt>
      <trkpt lat="43.67422" lon="-1.38904">
        <ele>26.960304</ele>
        <time>2016-09-04T07:59:35Z</time>
      </trkpt>
      <trkpt lat="43.67406" lon="-1.38918">
        <ele>28.20421</ele>
        <time>2016-09-04T07:59:43Z</time>
      </trkpt>
      <trkpt lat="43.67394" lon="-1.38938">
        <ele>27.39875</ele>
        <time>2016-09-04T07:59:51Z</time>
      </trkpt>
      <trkpt lat="43.67384" lon="-1.38963">
        <ele>27.009375</ele>
        <time>2016-09-04T07:59:59Z</time>
      </trkpt>
      <trkpt lat="43.67361" lon="-1.39043">
        <ele>27.906454</ele>
        <time>2016-09-04T08:00:24Z</time>
      </trkpt>
      <trkpt lat="43.67355" lon="-1.39069">
        <ele>28.42565</ele>
        <time>2016-09-04T08:00:32Z</time>
      </trkpt>
      <trkpt lat="43.67344" lon="-1.39095">
        <ele>28.059507</ele>
        <time>2016-09-04T08:00:41Z</time>
      </trkpt>
      <trkpt lat="43.67322" lon="-1.39091">
        <ele>25.679829</ele>
        <time>2016-09-04T08:00:52Z</time>
      </trkpt>
      <trkpt lat="43.67307" lon="-1.39101">
        <ele>25.00824</ele>
        <time>2016-09-04T08:01:01Z</time>
      </trkpt>
      <trkpt lat="43.67269" lon="-1.39171">
        <ele>24.818624</ele>
        <time>2016-09-04T08:01:27Z</time>
      </trkpt>
      <trkpt lat="43.67262" lon="-1.39199">
        <ele>24.221874</ele>
        <time>2016-09-04T08:01:36Z</time>
      </trkpt>
      <trkpt lat="43.67281" lon="-1.39226">
        <ele>23.667955</ele>
        <time>2016-09-04T08:01:47Z</time>
      </trkpt>
      <trkpt lat="43.67303" lon="-1.39232">
        <ele>23.134809</ele>
        <time>2016-09-04T08:01:55Z</time>
      </trkpt>
      <trkpt lat="43.67343" lon="-1.39235">
        <ele>27.497396</ele>
        <time>2016-09-04T08:02:15Z</time>
      </trkpt>
      <trkpt lat="43.6737" lon="-1.39241">
        <ele>29.342165</ele>
        <time>2016-09-04T08:02:30Z</time>
      </trkpt>
      <trkpt lat="43.67401" lon="-1.39255">
        <ele>30.809362</ele>
        <time>2016-09-04T08:02:47Z</time>
      </trkpt>
      <trkpt lat="43.67411" lon="-1.39279">
        <ele>32.23597</ele>
        <time>2016-09-04T08:03:00Z</time>
      </trkpt>
      <trkpt lat="43.674" lon="-1.39315">
        <ele>37.771236</ele>
        <time>2016-09-04T08:03:23Z</time>
      </trkpt>
      <trkpt lat="43.67401" lon="-1.39323">
        <ele>38.258472</ele>
        <time>2016-09-04T08:03:29Z</time>
      </trkpt>
      <trkpt lat="43.674" lon="-1.39343">
        <ele>40.740711</ele>
        <time>2016-09-04T08:03:45Z</time>
      </trkpt>
      <trkpt lat="43.67394" lon="-1.39353">
        <ele>42.811665</ele>
        <time>2016-09-04T08:04:02Z</time>
      </trkpt>
      <trkpt lat="43.67392" lon="-1.39351">
        <ele>43.314526</ele>
        <time>2016-09-04T08:04:06Z</time>
      </trkpt>
      <trkpt lat="43.67379" lon="-1.39316">
        <ele>40.219955</ele>
        <time>2016-09-04T08:04:32Z</time>
      </trkpt>
      <trkpt lat="43.67373" lon="-1.39307">
        <ele>39.234592</ele>
        <time>2016-09-04T08:04:43Z</time>
      </trkpt>
      <trkpt lat="43.67351" lon="-1.393">
        <ele>39.376564</ele>
        <time>2016-09-04T08:05:01Z</time>
      </trkpt>
      <trkpt lat="43.67328" lon="-1.39303">
        <ele>39.730099</ele>
        <time>2016-09-04T08:05:10Z</time>
      </trkpt>
      <trkpt lat="43.67284" lon="-1.39303">
        <ele>39.785339</ele>
        <time>2016-09-04T08:05:28Z</time>
      </trkpt>
      <trkpt lat="43.67261" lon="-1.39294">
        <ele>38.812702</ele>
        <time>2016-09-04T08:05:38Z</time>
      </trkpt>
      <trkpt lat="43.67243" lon="-1.39277">
        <ele>36.051735</ele>
        <time>2016-09-04T08:05:46Z</time>
      </trkpt>
      <trkpt lat="43.67222" lon="-1.39272">
        <ele>35.826008</ele>
        <time>2016-09-04T08:05:54Z</time>
      </trkpt>
      <trkpt lat="43.67201" lon="-1.39278">
        <ele>37.642456</ele>
        <time>2016-09-04T08:06:04Z</time>
      </trkpt>
      <trkpt lat="43.67181" lon="-1.39291">
        <ele>39.319805</ele>
        <time>2016-09-04T08:06:13Z</time>
      </trkpt>
      <trkpt lat="43.67159" lon="-1.39293">
        <ele>39.148438</ele>
        <time>2016-09-04T08:06:22Z</time>
      </trkpt>
      <trkpt lat="43.67137" lon="-1.39301">
        <ele>40.504032</ele>
        <time>2016-09-04T08:06:31Z</time>
      </trkpt>
      <trkpt lat="43.67116" lon="-1.39301">
        <ele>40.626427</ele>
        <time>2016-09-04T08:06:39Z</time>
      </trkpt>
      <trkpt lat="43.67091" lon="-1.39296">
        <ele>38.998436</ele>
        <time>2016-09-04T08:06:49Z</time>
      </trkpt>
      <trkpt lat="43.67069" lon="-1.39299">
        <ele>38.874313</ele>
        <time>2016-09-04T08:06:59Z</time>
      </trkpt>
      <trkpt lat="43.67038" lon="-1.39314">
        <ele>38.663742</ele>
        <time>2016-09-04T08:07:16Z</time>
      </trkpt>
      <trkpt lat="43.67026" lon="-1.39314">
        <ele>36.529625</ele>
        <time>2016-09-04T08:07:20Z</time>
      </trkpt>
      <trkpt lat="43.67006" lon="-1.39328">
        <ele>34.847244</ele>
        <time>2016-09-04T08:07:29Z</time>
      </trkpt>
      <trkpt lat="43.66979" lon="-1.39378">
        <ele>35.718559</ele>
        <time>2016-09-04T08:07:46Z</time>
      </trkpt>
      <trkpt lat="43.66955" lon="-1.39435">
        <ele>34.249401</ele>
        <time>2016-09-04T08:08:03Z</time>
      </trkpt>
      <trkpt lat="43.66947" lon="-1.39466">
        <ele>33.50753</ele>
        <time>2016-09-04T08:08:12Z</time>
      </trkpt>
      <trkpt lat="43.66929" lon="-1.39513">
        <ele>30.717365</ele>
        <time>2016-09-04T08:08:28Z</time>
      </trkpt>
      <trkpt lat="43.66924" lon="-1.39539">
        <ele>26.155943</ele>
        <time>2016-09-04T08:08:36Z</time>
      </trkpt>
      <trkpt lat="43.66945" lon="-1.39554">
        <ele>24.823593</ele>
        <time>2016-09-04T08:08:47Z</time>
      </trkpt>
      <trkpt lat="43.66946" lon="-1.39562">
        <ele>23.494732</ele>
        <time>2016-09-04T08:08:51Z</time>
      </trkpt>
      <trkpt lat="43.66943" lon="-1.39567">
        <ele>22.831985</ele>
        <time>2016-09-04T08:08:54Z</time>
      </trkpt>
      <trkpt lat="43.66936" lon="-1.39571">
        <ele>22.747499</ele>
        <time>2016-09-04T08:08:58Z</time>
      </trkpt>
      <trkpt lat="43.66924" lon="-1.39585">
        <ele>22.607063</ele>
        <time>2016-09-04T08:09:07Z</time>
      </trkpt>
      <trkpt lat="43.66925" lon="-1.39595">
        <ele>22.580641</ele>
        <time>2016-09-04T08:09:11Z</time>
      </trkpt>
      <trkpt lat="43.66923" lon="-1.396">
        <ele>22.757273</ele>
        <time>2016-09-04T08:09:14Z</time>
      </trkpt>
      <trkpt lat="43.66927" lon="-1.39605">
        <ele>22.234249</ele>
        <time>2016-09-04T08:09:17Z</time>
      </trkpt>
      <trkpt lat="43.66934" lon="-1.39653">
        <ele>23.891251</ele>
        <time>2016-09-04T08:09:34Z</time>
      </trkpt>
      <trkpt lat="43.66935" lon="-1.39673">
        <ele>26.550163</ele>
        <time>2016-09-04T08:09:42Z</time>
      </trkpt>
      <trkpt lat="43.66951" lon="-1.3971">
        <ele>25.86595</ele>
        <time>2016-09-04T08:09:57Z</time>
      </trkpt>
      <trkpt lat="43.66958" lon="-1.39738">
        <ele>24.849213</ele>
        <time>2016-09-04T08:10:08Z</time>
      </trkpt>
      <trkpt lat="43.66962" lon="-1.39772">
        <ele>24.745493</ele>
        <time>2016-09-04T08:10:19Z</time>
      </trkpt>
      <trkpt lat="43.66963" lon="-1.3982">
        <ele>26.190475</ele>
        <time>2016-09-04T08:10:33Z</time>
      </trkpt>
      <trkpt lat="43.66968" lon="-1.3985">
        <ele>25.35375</ele>
        <time>2016-09-04T08:10:44Z</time>
      </trkpt>
      <trkpt lat="43.66975" lon="-1.3988">
        <ele>23.790373</ele>
        <time>2016-09-04T08:10:52Z</time>
      </trkpt>
      <trkpt lat="43.66989" lon="-1.39994">
        <ele>19.790001</ele>
        <time>2016-09-04T08:11:25Z</time>
      </trkpt>
      <trkpt lat="43.6699" lon="-1.40022">
        <ele>19.764341</ele>
        <time>2016-09-04T08:11:34Z</time>
      </trkpt>
      <trkpt lat="43.67" lon="-1.40052">
        <ele>19.774601</ele>
        <time>2016-09-04T08:11:43Z</time>
      </trkpt>
      <trkpt lat="43.67004" lon="-1.40085">
        <ele>19.986809</ele>
        <time>2016-09-04T08:11:53Z</time>
      </trkpt>
      <trkpt lat="43.67023" lon="-1.4014">
        <ele>20.157782</ele>
        <time>2016-09-04T08:12:10Z</time>
      </trkpt>
      <trkpt lat="43.67024" lon="-1.40178">
        <ele>21.09514</ele>
        <time>2016-09-04T08:12:18Z</time>
      </trkpt>
      <trkpt lat="43.67031" lon="-1.40208">
        <ele>22.757376</ele>
        <time>2016-09-04T08:12:26Z</time>
      </trkpt>
      <trkpt lat="43.67048" lon="-1.4023">
        <ele>25.282881</ele>
        <time>2016-09-04T08:12:34Z</time>
      </trkpt>
      <trkpt lat="43.67068" lon="-1.40245">
        <ele>26.246641</ele>
        <time>2016-09-04T08:12:44Z</time>
      </trkpt>
      <trkpt lat="43.67089" lon="-1.40255">
        <ele>25.879999</ele>
        <time>2016-09-04T08:12:52Z</time>
      </trkpt>
      <trkpt lat="43.67105" lon="-1.40275">
        <ele>24.696463</ele>
        <time>2016-09-04T08:13:01Z</time>
      </trkpt>
      <trkpt lat="43.67124" lon="-1.40292">
        <ele>23.20632</ele>
        <time>2016-09-04T08:13:10Z</time>
      </trkpt>
      <trkpt lat="43.67147" lon="-1.40307">
        <ele>21.9475</ele>
        <time>2016-09-04T08:13:18Z</time>
      </trkpt>
      <trkpt lat="43.67164" lon="-1.40329">
        <ele>21.616369</ele>
        <time>2016-09-04T08:13:27Z</time>
      </trkpt>
      <trkpt lat="43.672" lon="-1.40367">
        <ele>22.315979</ele>
        <time>2016-09-04T08:13:45Z</time>
      </trkpt>
      <trkpt lat="43.67234" lon="-1.40407">
        <ele>22.45005</ele>
        <time>2016-09-04T08:14:03Z</time>
      </trkpt>
      <trkpt lat="43.6725" lon="-1.40433">
        <ele>23.320473</ele>
        <time>2016-09-04T08:14:13Z</time>
      </trkpt>
      <trkpt lat="43.67261" lon="-1.40462">
        <ele>23.846581</ele>
        <time>2016-09-04T08:14:23Z</time>
      </trkpt>
      <trkpt lat="43.67274" lon="-1.40561">
        <ele>19.458527</ele>
        <time>2016-09-04T08:14:50Z</time>
      </trkpt>
      <trkpt lat="43.67281" lon="-1.40631">
        <ele>18.063</ele>
        <time>2016-09-04T08:15:10Z</time>
      </trkpt>
      <trkpt lat="43.67279" lon="-1.40665">
        <ele>18.521875</ele>
        <time>2016-09-04T08:15:19Z</time>
      </trkpt>
      <trkpt lat="43.67272" lon="-1.40734">
        <ele>20.162516</ele>
        <time>2016-09-04T08:15:43Z</time>
      </trkpt>
      <trkpt lat="43.67283" lon="-1.40812">
        <ele>22.054354</ele>
        <time>2016-09-04T08:16:01Z</time>
      </trkpt>
      <trkpt lat="43.67309" lon="-1.40863">
        <ele>23.1542</ele>
        <time>2016-09-04T08:16:16Z</time>
      </trkpt>
      <trkpt lat="43.67327" lon="-1.40889">
        <ele>23.759001</ele>
        <time>2016-09-04T08:16:24Z</time>
      </trkpt>
      <trkpt lat="43.67346" lon="-1.40938">
        <ele>25.438725</ele>
        <time>2016-09-04T08:16:40Z</time>
      </trkpt>
      <trkpt lat="43.67361" lon="-1.40957">
        <ele>24.587006</ele>
        <time>2016-09-04T08:16:48Z</time>
      </trkpt>
      <trkpt lat="43.67379" lon="-1.40968">
        <ele>22.407501</ele>
        <time>2016-09-04T08:16:56Z</time>
      </trkpt>
      <trkpt lat="43.67391" lon="-1.40984">
        <ele>19.7575</ele>
        <time>2016-09-04T08:17:03Z</time>
      </trkpt>
      <trkpt lat="43.67403" lon="-1.41055">
        <ele>13.146815</ele>
        <time>2016-09-04T08:17:25Z</time>
      </trkpt>
      <trkpt lat="43.67407" lon="-1.41061">
        <ele>12.256233</ele>
        <time>2016-09-04T08:17:28Z</time>
      </trkpt>
      <trkpt lat="43.67412" lon="-1.4106">
        <ele>11.83325</ele>
        <time>2016-09-04T08:17:31Z</time>
      </trkpt>
      <trkpt lat="43.67419" lon="-1.4103">
        <ele>12.940719</ele>
        <time>2016-09-04T08:17:46Z</time>
      </trkpt>
      <trkpt lat="43.67429" lon="-1.41008">
        <ele>14.041187</ele>
        <time>2016-09-04T08:18:00Z</time>
      </trkpt>
      <trkpt lat="43.67441" lon="-1.41001">
        <ele>14.464406</ele>
        <time>2016-09-04T08:18:08Z</time>
      </trkpt>
      <trkpt lat="43.67445" lon="-1.40978">
        <ele>16.494007</ele>
        <time>2016-09-04T08:18:17Z</time>
      </trkpt>
      <trkpt lat="43.67441" lon="-1.40934">
        <ele>20.138338</ele>
        <time>2016-09-04T08:18:30Z</time>
      </trkpt>
      <trkpt lat="43.6743" lon="-1.40895">
        <ele>23.147573</ele>
        <time>2016-09-04T08:18:41Z</time>
      </trkpt>
      <trkpt lat="43.67428" lon="-1.40878">
        <ele>23.749352</ele>
        <time>2016-09-04T08:18:45Z</time>
      </trkpt>
      <trkpt lat="43.67414" lon="-1.40816">
        <ele>22.996281</ele>
        <time>2016-09-04T08:19:04Z</time>
      </trkpt>
      <trkpt lat="43.67411" lon="-1.40785">
        <ele>20.713707</ele>
        <time>2016-09-04T08:19:12Z</time>
      </trkpt>
      <trkpt lat="43.67404" lon="-1.40756">
        <ele>19.355</ele>
        <time>2016-09-04T08:19:21Z</time>
      </trkpt>
      <trkpt lat="43.67395" lon="-1.40752">
        <ele>19.7425</ele>
        <time>2016-09-04T08:19:25Z</time>
      </trkpt>
      <trkpt lat="43.67347" lon="-1.40747">
        <ele>19.667568</ele>
        <time>2016-09-04T08:19:43Z</time>
      </trkpt>
      <trkpt lat="43.67323" lon="-1.40737">
        <ele>19.596062</ele>
        <time>2016-09-04T08:19:53Z</time>
      </trkpt>
      <trkpt lat="43.6729" lon="-1.4069">
        <ele>18.501156</ele>
        <time>2016-09-04T08:20:13Z</time>
      </trkpt>
      <trkpt lat="43.67288" lon="-1.4062">
        <ele>17.064301</ele>
        <time>2016-09-04T08:20:34Z</time>
      </trkpt>
      <trkpt lat="43.67286" lon="-1.40583">
        <ele>17.423187</ele>
        <time>2016-09-04T08:20:44Z</time>
      </trkpt>
      <trkpt lat="43.67268" lon="-1.40485">
        <ele>22.490625</ele>
        <time>2016-09-04T08:21:09Z</time>
      </trkpt>
      <trkpt lat="43.67261" lon="-1.40458">
        <ele>23.942625</ele>
        <time>2016-09-04T08:21:17Z</time>
      </trkpt>
      <trkpt lat="43.67233" lon="-1.40412">
        <ele>22.856413</ele>
        <time>2016-09-04T08:21:34Z</time>
      </trkpt>
      <trkpt lat="43.67191" lon="-1.40378">
        <ele>23.886999</ele>
        <time>2016-09-04T08:21:53Z</time>
      </trkpt>
      <trkpt lat="43.67172" lon="-1.40354">
        <ele>23.487968</ele>
        <time>2016-09-04T08:22:03Z</time>
      </trkpt>
      <trkpt lat="43.67145" lon="-1.40302">
        <ele>21.959375</ele>
        <time>2016-09-04T08:22:22Z</time>
      </trkpt>
      <trkpt lat="43.67163" lon="-1.40283">
        <ele>20.86875</ele>
        <time>2016-09-04T08:22:34Z</time>
      </trkpt>
      <trkpt lat="43.67187" lon="-1.40273">
        <ele>19.830156</ele>
        <time>2016-09-04T08:22:46Z</time>
      </trkpt>
      <trkpt lat="43.67214" lon="-1.40274">
        <ele>19.198181</ele>
        <time>2016-09-04T08:22:55Z</time>
      </trkpt>
      <trkpt lat="43.67262" lon="-1.40291">
        <ele>18.0875</ele>
        <time>2016-09-04T08:23:12Z</time>
      </trkpt>
      <trkpt lat="43.67287" lon="-1.40294">
        <ele>18</ele>
        <time>2016-09-04T08:23:20Z</time>
      </trkpt>
      <trkpt lat="43.67348" lon="-1.40316">
        <ele>18.8225</ele>
        <time>2016-09-04T08:23:45Z</time>
      </trkpt>
      <trkpt lat="43.67371" lon="-1.40319">
        <ele>19.216112</ele>
        <time>2016-09-04T08:23:53Z</time>
      </trkpt>
      <trkpt lat="43.67437" lon="-1.4035">
        <ele>20</ele>
        <time>2016-09-04T08:24:24Z</time>
      </trkpt>
      <trkpt lat="43.67493" lon="-1.40351">
        <ele>19.912251</ele>
        <time>2016-09-04T08:24:50Z</time>
      </trkpt>
      <trkpt lat="43.6751" lon="-1.40357">
        <ele>19.526447</ele>
        <time>2016-09-04T08:25:00Z</time>
      </trkpt>
      <trkpt lat="43.67527" lon="-1.40358">
        <ele>19.220434</ele>
        <time>2016-09-04T08:25:09Z</time>
      </trkpt>
      <trkpt lat="43.6757" lon="-1.40345">
        <ele>21.677485</ele>
        <time>2016-09-04T08:25:29Z</time>
      </trkpt>
      <trkpt lat="43.6759" lon="-1.40322">
        <ele>21.42</ele>
        <time>2016-09-04T08:25:40Z</time>
      </trkpt>
      <trkpt lat="43.67594" lon="-1.40293">
        <ele>19.880716</ele>
        <time>2016-09-04T08:25:50Z</time>
      </trkpt>
      <trkpt lat="43.67587" lon="-1.40265">
        <ele>19.633097</ele>
        <time>2016-09-04T08:26:01Z</time>
      </trkpt>
      <trkpt lat="43.6759" lon="-1.40233">
        <ele>19.990768</ele>
        <time>2016-09-04T08:26:11Z</time>
      </trkpt>
      <trkpt lat="43.67596" lon="-1.40201">
        <ele>20</ele>
        <time>2016-09-04T08:26:19Z</time>
      </trkpt>
      <trkpt lat="43.67591" lon="-1.40137">
        <ele>20.047251</ele>
        <time>2016-09-04T08:26:39Z</time>
      </trkpt>
      <trkpt lat="43.67596" lon="-1.40116">
        <ele>20.168625</ele>
        <time>2016-09-04T08:26:48Z</time>
      </trkpt>
      <trkpt lat="43.67619" lon="-1.40116">
        <ele>20.636999</ele>
        <time>2016-09-04T08:27:01Z</time>
      </trkpt>
      <trkpt lat="43.67638" lon="-1.40128">
        <ele>20.8575</ele>
        <time>2016-09-04T08:27:12Z</time>
      </trkpt>
      <trkpt lat="43.67684" lon="-1.4019">
        <ele>21.581501</ele>
        <time>2016-09-04T08:27:43Z</time>
      </trkpt>
      <trkpt lat="43.67691" lon="-1.40236">
        <ele>22.373751</ele>
        <time>2016-09-04T08:27:56Z</time>
      </trkpt>
      <trkpt lat="43.67703" lon="-1.40267">
        <ele>22.830683</ele>
        <time>2016-09-04T08:28:06Z</time>
      </trkpt>
      <trkpt lat="43.67724" lon="-1.40295">
        <ele>22.850248</ele>
        <time>2016-09-04T08:28:15Z</time>
      </trkpt>
      <trkpt lat="43.67742" lon="-1.4031">
        <ele>22.518126</ele>
        <time>2016-09-04T08:28:24Z</time>
      </trkpt>
      <trkpt lat="43.67786" lon="-1.40321">
        <ele>21.971874</ele>
        <time>2016-09-04T08:28:46Z</time>
      </trkpt>
      <trkpt lat="43.67813" lon="-1.40324">
        <ele>21.428125</ele>
        <time>2016-09-04T08:28:56Z</time>
      </trkpt>
      <trkpt lat="43.67833" lon="-1.40304">
        <ele>21.12151</ele>
        <time>2016-09-04T08:29:05Z</time>
      </trkpt>
      <trkpt lat="43.67849" lon="-1.40281">
        <ele>21.992437</ele>
        <time>2016-09-04T08:29:14Z</time>
      </trkpt>
      <trkpt lat="43.67871" lon="-1.4026">
        <ele>24.110609</ele>
        <time>2016-09-04T08:29:24Z</time>
      </trkpt>
      <trkpt lat="43.67888" lon="-1.40239">
        <ele>24.822695</ele>
        <time>2016-09-04T08:29:34Z</time>
      </trkpt>
      <trkpt lat="43.67899" lon="-1.40212">
        <ele>24.998276</ele>
        <time>2016-09-04T08:29:43Z</time>
      </trkpt>
      <trkpt lat="43.67907" lon="-1.40182">
        <ele>25.959999</ele>
        <time>2016-09-04T08:29:52Z</time>
      </trkpt>
      <trkpt lat="43.67932" lon="-1.40125">
        <ele>29.141438</ele>
        <time>2016-09-04T08:30:12Z</time>
      </trkpt>
      <trkpt lat="43.67939" lon="-1.40095">
        <ele>29.908894</ele>
        <time>2016-09-04T08:30:23Z</time>
      </trkpt>
      <trkpt lat="43.67941" lon="-1.40067">
        <ele>30.03517</ele>
        <time>2016-09-04T08:30:35Z</time>
      </trkpt>
      <trkpt lat="43.6795" lon="-1.40037">
        <ele>30.525404</ele>
        <time>2016-09-04T08:30:47Z</time>
      </trkpt>
      <trkpt lat="43.67951" lon="-1.40004">
        <ele>30.991468</ele>
        <time>2016-09-04T08:30:58Z</time>
      </trkpt>
      <trkpt lat="43.67951" lon="-1.39972">
        <ele>30.984438</ele>
        <time>2016-09-04T08:31:10Z</time>
      </trkpt>
      <trkpt lat="43.67945" lon="-1.39934">
        <ele>30.456837</ele>
        <time>2016-09-04T08:31:20Z</time>
      </trkpt>
      <trkpt lat="43.67937" lon="-1.39898">
        <ele>29.031597</ele>
        <time>2016-09-04T08:31:29Z</time>
      </trkpt>
      <trkpt lat="43.67927" lon="-1.39868">
        <ele>27.876768</ele>
        <time>2016-09-04T08:31:37Z</time>
      </trkpt>
      <trkpt lat="43.67911" lon="-1.39845">
        <ele>26.611662</ele>
        <time>2016-09-04T08:31:45Z</time>
      </trkpt>
      <trkpt lat="43.67904" lon="-1.39814">
        <ele>25.378788</ele>
        <time>2016-09-04T08:31:53Z</time>
      </trkpt>
      <trkpt lat="43.67908" lon="-1.3977">
        <ele>28.597343</ele>
        <time>2016-09-04T08:32:08Z</time>
      </trkpt>
      <trkpt lat="43.67905" lon="-1.39742">
        <ele>31.78055</ele>
        <time>2016-09-04T08:32:19Z</time>
      </trkpt>
      <trkpt lat="43.67906" lon="-1.39713">
        <ele>35.627338</ele>
        <time>2016-09-04T08:32:30Z</time>
      </trkpt>
      <trkpt lat="43.67902" lon="-1.39686">
        <ele>37.637421</ele>
        <time>2016-09-04T08:32:41Z</time>
      </trkpt>
      <trkpt lat="43.67907" lon="-1.3966">
        <ele>36.707546</ele>
        <time>2016-09-04T08:32:51Z</time>
      </trkpt>
      <trkpt lat="43.67942" lon="-1.39551">
        <ele>29.831499</ele>
        <time>2016-09-04T08:33:26Z</time>
      </trkpt>
      <trkpt lat="43.67945" lon="-1.3952">
        <ele>30.3428</ele>
        <time>2016-09-04T08:33:34Z</time>
      </trkpt>
      <trkpt lat="43.67946" lon="-1.39459">
        <ele>32.040482</ele>
        <time>2016-09-04T08:33:50Z</time>
      </trkpt>
      <trkpt lat="43.6794" lon="-1.39404">
        <ele>32.478748</ele>
        <time>2016-09-04T08:34:06Z</time>
      </trkpt>
      <trkpt lat="43.6793" lon="-1.39352">
        <ele>31.161016</ele>
        <time>2016-09-04T08:34:20Z</time>
      </trkpt>
      <trkpt lat="43.67928" lon="-1.39323">
        <ele>31.450815</ele>
        <time>2016-09-04T08:34:28Z</time>
      </trkpt>
      <trkpt lat="43.67929" lon="-1.39294">
        <ele>31.340803</ele>
        <time>2016-09-04T08:34:36Z</time>
      </trkpt>
      <trkpt lat="43.67948" lon="-1.39146">
        <ele>28.334082</ele>
        <time>2016-09-04T08:35:18Z</time>
      </trkpt>
      <trkpt lat="43.67946" lon="-1.39116">
        <ele>27.117512</ele>
        <time>2016-09-04T08:35:27Z</time>
      </trkpt>
      <trkpt lat="43.67942" lon="-1.39086">
        <ele>25.235598</ele>
        <time>2016-09-04T08:35:36Z</time>
      </trkpt>
      <trkpt lat="43.67959" lon="-1.38962">
        <ele>26.148989</ele>
        <time>2016-09-04T08:36:12Z</time>
      </trkpt>
      <trkpt lat="43.67957" lon="-1.3886">
        <ele>24.089178</ele>
        <time>2016-09-04T08:36:39Z</time>
      </trkpt>
      <trkpt lat="43.6796" lon="-1.38831">
        <ele>23.910336</ele>
        <time>2016-09-04T08:36:48Z</time>
      </trkpt>
      <trkpt lat="43.67971" lon="-1.38804">
        <ele>24.125587</ele>
        <time>2016-09-04T08:36:57Z</time>
      </trkpt>
      <trkpt lat="43.67977" lon="-1.38771">
        <ele>23.670969</ele>
        <time>2016-09-04T08:37:05Z</time>
      </trkpt>
      <trkpt lat="43.67982" lon="-1.38677">
        <ele>22.504375</ele>
        <time>2016-09-04T08:37:27Z</time>
      </trkpt>
      <trkpt lat="43.6798" lon="-1.38648">
        <ele>22.0275</ele>
        <time>2016-09-04T08:37:34Z</time>
      </trkpt>
      <trkpt lat="43.67981" lon="-1.38619">
        <ele>21.563749</ele>
        <time>2016-09-04T08:37:42Z</time>
      </trkpt>
      <trkpt lat="43.6798" lon="-1.38589">
        <ele>21.081249</ele>
        <time>2016-09-04T08:37:50Z</time>
      </trkpt>
      <trkpt lat="43.6797" lon="-1.38502">
        <ele>20.497412</ele>
        <time>2016-09-04T08:38:12Z</time>
      </trkpt>
      <trkpt lat="43.67973" lon="-1.38476">
        <ele>20.812838</ele>
        <time>2016-09-04T08:38:19Z</time>
      </trkpt>
    </trkseg>
  </trk>
</gpx>